METAR Data
IDs: Format: Raw Decoded Include TAF

Data at: 1203 UTC 24 May 2022

KSEA 241153Z 28006KT 10SM OVC015 11/08 A3014 RMK AO2 SLP211 T01060078 10128 20106 58005
KSEA 241053Z 27003KT 10SM SCT013 OVC021 11/08 A3015 RMK AO2 SLP214 T01110078
KSEA 240953Z 23004KT 10SM OVC019 11/08 A3015 RMK AO2 SLP216 T01110078
KSEA 240921Z 23004KT 10SM BKN018 BKN044 OVC065 11/08 A3015 RMK AO2 T01110083
KSEA 240853Z 22004KT 10SM OVC060 11/08 A3016 RMK AO2 SLP217 T01110083 56003
KSEA 240753Z 22005KT 10SM OVC040 11/08 A3016 RMK AO2 SLP219 T01110083 401890106
KSEA 240653Z 21006KT 10SM SCT065 SCT200 12/09 A3016 RMK AO2 SLP219 T01170089
KSEA 240553Z 20004KT 10SM BKN036 OVC055 13/08 A3016 RMK AO2 SLP221 T01280083 10183 20128 50004
KSEA 240453Z 03005KT 10SM OVC035 16/07 A3016 RMK AO2 SLP221 T01560072
KSEA 240353Z 31005KT 10SM BKN033 15/09 A3016 RMK AO2 SLP220 T01500089
KSEA 240253Z 31005KT 10SM SCT050 SCT100 BKN250 16/08 A3015 RMK AO2 SLP217 T01610083 56006
KSEA 240153Z 28007KT 10SM FEW049 SCT090 BKN250 17/08 A3015 RMK AO2 SLP216 T01720083
KSEA 240053Z 28007KT 10SM FEW048 BKN085 18/08 A3016 RMK AO2 SLP219 T01780078
KSEA 232353Z 23006KT 10SM SCT055 SCT250 18/08 A3017 RMK AO2 SLP222 T01830083 10189 20128 56007
KSEA 232253Z 19011KT 10SM SCT060 SCT250 18/07 A3018 RMK AO2 SLP224 T01830072
KSEA 232153Z 19007KT 160V230 10SM FEW030 BKN060 BKN250 18/07 A3018 RMK AO2 SLP226 T01780067
KSEA 232053Z 20009KT 10SM SCT035 BKN070 18/08 A3019 RMK AO2 SLP229 T01780078 58005
KSEA 231953Z 19009KT 10SM SCT030 BKN070 16/08 A3021 RMK AO2 SLP234 T01560078
KSEA 231853Z 20008KT 10SM FEW025 BKN075 14/08 A3021 RMK AO2 SLP236 T01440083
KSEA 231753Z 21008KT 10SM SCT015 BKN065 13/08 A3021 RMK AO2 SLP234 T01280083 10128 20106 50002
KSEA 231653Z 20007KT 10SM SCT015 OVC070 12/08 A3021 RMK AO2 SLP237 T01220083
KSEA 231553Z 18005KT 10SM FEW013 OVC070 12/08 A3021 RMK AO2 SLP236 T01170083
KSEA 231453Z 15005KT 10SM FEW060 OVC080 11/09 A3020 RMK AO2 SLP232 T01110089 53004
KSEA 231353Z 23004KT 10SM BKN090 11/08 A3019 RMK AO2 SLP229 T01110083
KSEA 231253Z 25004KT 10SM OVC095 11/08 A3019 RMK AO2 SLP230 T01060083